Meadow, South Dakota
Current Conditions -  °F | °C
As of 8:53 PM on Saturday 24 Jan 2015 (Local Time) from KHEI Reporting Station
Overcast Overcast  
Wind Chill: 27°   Ceiling: 2500
Heat Index: 38°   Visibility: 10mi
Dew Point: 30°   Wind: 25mph
Humidity: 73%   Direction: 310°NW
Pressure: 29.9"   Gusts: 35mph
Location:  45.53°N, 102.22°W
Report Text: KHEI 250353Z AUTO 31022G30KT 10SM OVC025 03/M01 A2990 RMK AO2 PK WND 31030/0352 SLP143 T00331011
Loading
Personal Weather Stations






























Interactive Weather Map New forecast layout! Learn more

10-Day Weather Forecast

Advertisements
Track Severe Weather on mobile